createdAt,value
2019-05-15T00:00:54.480Z,35.43
2019-05-15T00:03:28.682Z,35.65
2019-05-15T00:05:59.775Z,36.07
2019-05-15T00:08:30.604Z,35.90
2019-05-15T00:11:02.424Z,35.31
2019-05-15T00:13:34.034Z,35.31
2019-05-15T00:16:08.269Z,34.90
2019-05-15T00:18:39.769Z,35.71
2019-05-15T00:21:10.504Z,35.85
2019-05-15T00:23:42.262Z,36.06
2019-05-15T00:26:13.846Z,35.95
2019-05-15T00:28:47.866Z,35.75
2019-05-15T00:31:18.945Z,35.84
2019-05-15T00:33:50.726Z,35.62
2019-05-15T00:36:21.861Z,35.44
2019-05-15T00:39:08.455Z,35.40
2019-05-15T00:41:50.867Z,34.77
2019-05-15T00:44:12.795Z,35.31
2019-05-15T00:46:43.505Z,34.96
2019-05-15T00:49:15.270Z,35.97
2019-05-15T00:51:48.668Z,35.69
2019-05-15T00:54:20.371Z,35.65
2019-05-15T00:56:52.019Z,35.65
2019-05-15T00:59:26.920Z,36.13
2019-05-15T01:01:59.281Z,35.13
2019-05-15T01:04:30.496Z,36.00
2019-05-15T01:07:02.315Z,36.16
2019-05-15T01:09:33.849Z,36.21
2019-05-15T01:12:05.745Z,36.11
2019-05-15T01:14:38.440Z,36.24
2019-05-15T01:17:09.758Z,35.44
2019-05-15T01:19:40.448Z,36.08
2019-05-15T01:22:12.053Z,35.39
2019-05-15T01:24:43.774Z,35.67
2019-05-15T01:27:14.490Z,36.41
2019-05-15T01:29:46.302Z,36.55
2019-05-15T01:32:19.077Z,36.11
2019-05-15T01:34:51.042Z,36.49
2019-05-15T01:37:23.267Z,36.30
2019-05-15T01:39:58.000Z,35.81
2019-05-15T01:42:29.407Z,36.32
2019-05-15T01:45:01.064Z,36.32
2019-05-15T01:47:33.310Z,35.84
2019-05-15T01:50:04.898Z,36.00
2019-05-15T01:52:38.690Z,35.94
2019-05-15T01:55:10.653Z,36.30
2019-05-15T01:57:42.350Z,36.34
2019-05-15T02:00:14.617Z,36.34
2019-05-15T02:02:48.105Z,36.03
2019-05-15T02:05:19.753Z,36.03
2019-05-15T02:07:50.488Z,36.39
2019-05-15T02:10:22.303Z,36.37
2019-05-15T02:12:54.313Z,35.45
2019-05-15T02:15:25.837Z,36.38
2019-05-15T02:17:58.801Z,36.23
2019-05-15T02:20:30.749Z,36.75
2019-05-15T02:23:01.892Z,36.69
2019-05-15T02:25:33.366Z,36.60
2019-05-15T02:28:05.064Z,36.00
2019-05-15T02:30:40.404Z,36.47
2019-05-15T02:33:11.066Z,36.66
2019-05-15T02:35:42.757Z,36.63
2019-05-15T02:38:15.567Z,36.52
2019-05-15T02:40:49.448Z,36.68
2019-05-15T02:43:21.306Z,36.63
2019-05-15T02:45:52.871Z,36.74
2019-05-15T02:48:25.303Z,36.71
2019-05-15T02:50:58.922Z,36.32
2019-05-15T02:53:30.336Z,36.57
2019-05-15T02:56:01.874Z,36.46
2019-05-15T02:58:33.830Z,36.57
2019-05-15T03:01:05.751Z,36.57
2019-05-15T03:03:38.733Z,36.82
2019-05-15T03:06:10.227Z,36.57
2019-05-15T03:08:42.324Z,36.63
2019-05-15T03:11:14.086Z,36.83
2019-05-15T03:13:45.765Z,36.86
2019-05-15T03:16:19.434Z,36.62
2019-05-15T03:18:50.764Z,36.30
2019-05-15T03:21:23.736Z,36.66
2019-05-15T03:23:54.711Z,36.65
2019-05-15T03:26:25.458Z,36.85
2019-05-15T03:28:59.072Z,36.94
2019-05-15T03:31:48.867Z,36.85
2019-05-15T03:34:03.994Z,36.64
2019-05-15T03:36:36.053Z,36.45
2019-05-15T03:39:09.666Z,36.66
2019-05-15T03:41:41.759Z,37.13
2019-05-15T03:44:12.478Z,36.35
2019-05-15T03:46:44.322Z,36.45
2019-05-15T03:49:16.066Z,36.76
2019-05-15T03:51:49.999Z,36.41
2019-05-15T03:54:21.307Z,36.98
2019-05-15T03:56:52.748Z,36.98
2019-05-15T03:59:23.486Z,37.19
2019-05-15T04:01:59.700Z,36.62
2019-05-15T04:04:29.882Z,36.67
2019-05-15T04:07:01.863Z,36.88
2019-05-15T04:09:33.763Z,36.89
2019-05-15T04:12:04.478Z,37.00
2019-05-15T04:14:39.269Z,36.77
2019-05-15T04:17:09.819Z,36.77
2019-05-15T04:19:41.595Z,36.07
2019-05-15T04:22:13.427Z,36.91
2019-05-15T04:24:45.302Z,36.91
2019-05-15T04:27:19.574Z,36.66
2019-05-15T04:29:50.373Z,36.77
2019-05-15T04:32:22.297Z,36.77
2019-05-15T04:34:54.001Z,36.88
2019-05-15T04:37:25.830Z,36.57
2019-05-15T04:39:59.722Z,36.20
2019-05-15T04:42:31.295Z,36.53
2019-05-15T04:45:03.452Z,36.83
2019-05-15T04:47:35.064Z,36.83
2019-05-15T04:50:08.971Z,36.57
2019-05-15T04:52:43.351Z,36.65
2019-05-15T04:55:14.329Z,36.20
2019-05-15T04:57:46.371Z,36.80
2019-05-15T05:00:49.614Z,36.60
2019-05-15T05:03:21.782Z,36.13
2019-05-15T05:05:53.787Z,36.47
2019-05-15T05:08:25.417Z,36.67
2019-05-15T05:10:59.194Z,36.26
2019-05-15T05:13:30.619Z,36.48
2019-05-15T05:16:02.392Z,36.61
2019-05-15T05:18:34.295Z,36.61
2019-05-15T05:21:07.731Z,36.98
2019-05-15T05:23:39.782Z,37.04
2019-05-15T05:26:12.038Z,36.92
2019-05-15T05:28:43.763Z,36.40
2019-05-15T05:31:18.466Z,36.20
2019-05-15T05:33:49.393Z,36.28
2019-05-15T05:36:21.293Z,36.28
2019-05-15T05:38:53.299Z,36.43
2019-05-15T05:41:27.971Z,36.63
2019-05-15T05:43:59.338Z,36.10
2019-05-15T05:46:31.328Z,36.10
2019-05-15T05:49:03.764Z,36.06
2019-05-15T05:51:35.574Z,36.39
2019-05-15T05:54:08.449Z,36.34
2019-05-15T05:56:40.850Z,35.75
2019-05-15T05:59:12.561Z,35.75
2019-05-15T06:01:44.750Z,35.75
2019-05-15T06:04:18.403Z,35.75
2019-05-15T06:07:06.291Z,36.04
2019-05-15T06:09:23.465Z,36.31
2019-05-15T06:11:55.302Z,36.12
2019-05-15T06:14:28.850Z,36.21
2019-05-15T06:17:00.619Z,35.52
2019-05-15T06:19:32.394Z,36.48
2019-05-15T06:22:04.079Z,36.48
2019-05-15T06:24:37.811Z,36.13
2019-05-15T06:27:09.315Z,36.12
2019-05-15T06:29:41.390Z,36.31
2019-05-15T06:32:13.063Z,36.15
2019-05-15T06:34:44.793Z,36.43
2019-05-15T06:37:19.453Z,35.81
2019-05-15T06:39:49.748Z,36.19
2019-05-15T06:42:20.506Z,36.10
2019-05-15T06:44:52.307Z,36.23
2019-05-15T06:47:23.924Z,36.18
2019-05-15T06:49:57.863Z,35.31
2019-05-15T06:52:29.377Z,35.76
2019-05-15T06:55:01.269Z,35.76
2019-05-15T06:57:32.859Z,35.75
2019-05-15T07:00:04.748Z,35.46
2019-05-15T07:02:37.927Z,35.55
2019-05-15T07:05:08.993Z,35.35
2019-05-15T07:07:40.777Z,35.38
2019-05-15T07:10:11.466Z,35.32
2019-05-15T07:12:43.311Z,35.27
2019-05-15T07:15:15.358Z,34.44
2019-05-15T07:17:48.426Z,34.74
2019-05-15T07:20:19.929Z,34.81
2019-05-15T07:22:51.491Z,35.36
2019-05-15T07:25:23.297Z,34.94
2019-05-15T07:27:57.898Z,34.94
2019-05-15T07:30:29.306Z,34.02
2019-05-15T07:33:01.903Z,34.34
2019-05-15T07:35:33.745Z,34.22
2019-05-15T07:38:04.558Z,34.64
2019-05-15T07:40:38.578Z,34.87
2019-05-15T07:43:10.870Z,34.87
2019-05-15T07:45:44.397Z,34.26
2019-05-15T07:48:18.867Z,34.14
2019-05-15T07:50:50.154Z,34.53
2019-05-15T07:53:21.771Z,34.72
2019-05-15T07:55:53.357Z,34.29
2019-05-15T07:58:27.669Z,34.38
2019-05-15T08:00:59.128Z,33.88
2019-05-15T08:03:31.908Z,34.13
2019-05-15T08:06:03.824Z,34.47
2019-05-15T08:08:35.790Z,34.53
2019-05-15T08:11:17.632Z,34.17
2019-05-15T08:13:40.063Z,34.16
2019-05-15T08:16:11.773Z,34.23
2019-05-15T08:18:42.463Z,33.30
2019-05-15T08:21:14.298Z,32.63
2019-05-15T08:23:48.242Z,34.47
2019-05-15T08:26:18.525Z,34.00
2019-05-15T08:28:50.298Z,33.87
2019-05-15T08:31:21.833Z,33.87
2019-05-15T08:33:53.813Z,33.86
2019-05-15T08:36:27.649Z,33.93
2019-05-15T08:38:59.305Z,34.05
2019-05-15T08:41:30.811Z,33.66
2019-05-15T08:44:02.654Z,33.75
2019-05-15T08:46:34.861Z,33.19
2019-05-15T08:49:09.206Z,33.19
2019-05-15T08:51:41.807Z,32.79
2019-05-15T08:54:13.765Z,33.56
2019-05-15T08:56:48.194Z,32.58
2019-05-15T08:59:19.435Z,33.19
2019-05-15T09:01:51.294Z,31.97
2019-05-15T09:04:30.610Z,32.31
2019-05-15T09:07:00.945Z,31.64
2019-05-15T09:09:28.906Z,32.09
2019-05-15T09:12:00.803Z,31.72
2019-05-15T09:14:32.779Z,29.73
2019-05-15T09:17:03.714Z,31.67
2019-05-15T09:19:34.499Z,30.64
2019-05-15T09:22:08.915Z,30.68
2019-05-15T09:24:39.745Z,31.75
2019-05-15T09:27:10.523Z,31.41
2019-05-15T09:29:42.569Z,32.59
2019-05-15T09:32:14.460Z,31.81
2019-05-15T09:34:51.694Z,31.81
2019-05-15T09:37:21.316Z,32.03
2019-05-15T09:39:53.332Z,32.62
2019-05-15T09:42:25.301Z,32.20
2019-05-15T09:44:58.440Z,32.54
2019-05-15T09:47:30.814Z,31.94
2019-05-15T09:50:02.559Z,31.66
2019-05-15T09:52:34.836Z,32.77
2019-05-15T09:55:08.600Z,32.13
2019-05-15T09:57:40.304Z,31.98
2019-05-15T10:00:12.511Z,31.75
2019-05-15T10:02:44.755Z,31.40
2019-05-15T10:05:18.502Z,31.38
2019-05-15T10:07:50.049Z,31.44
2019-05-15T10:10:22.305Z,31.82
2019-05-15T10:12:53.854Z,32.75
2019-05-15T10:15:25.768Z,31.64
2019-05-15T10:17:59.771Z,31.89
2019-05-15T10:20:31.806Z,32.13
2019-05-15T10:23:03.420Z,31.31
2019-05-15T10:25:35.368Z,31.66
2019-05-15T10:28:09.749Z,31.89
2019-05-15T10:30:40.622Z,32.27
2019-05-15T10:33:11.937Z,31.85
2019-05-15T10:35:43.777Z,31.88
2019-05-15T10:38:15.623Z,31.45
2019-05-15T10:41:02.769Z,32.42
2019-05-15T10:43:21.163Z,32.42
2019-05-15T10:45:54.828Z,31.84
2019-05-15T10:48:29.187Z,31.04
2019-05-15T10:51:05.920Z,31.82
2019-05-15T10:53:33.300Z,32.34
2019-05-15T10:56:04.868Z,31.79
2019-05-15T10:58:38.970Z,31.62
2019-05-15T11:01:11.361Z,31.47
2019-05-15T11:03:42.478Z,30.06
2019-05-15T11:06:14.263Z,30.82
2019-05-15T11:08:50.932Z,31.88
2019-05-15T11:11:19.851Z,32.58
2019-05-15T11:13:51.482Z,30.79
2019-05-15T11:16:23.304Z,31.76
2019-05-15T11:18:54.912Z,31.87
2019-05-15T11:21:26.703Z,32.33
2019-05-15T11:23:59.023Z,31.53
2019-05-15T11:26:33.566Z,32.36
2019-05-15T11:29:04.602Z,31.88
2019-05-15T11:31:39.137Z,32.26
2019-05-15T11:34:10.068Z,32.26
2019-05-15T11:36:41.821Z,31.13
2019-05-15T11:39:13.374Z,32.43
2019-05-15T11:41:45.067Z,31.89
2019-05-15T11:44:18.668Z,31.97
2019-05-15T11:46:50.401Z,31.23
2019-05-15T11:49:26.164Z,32.25
2019-05-15T11:52:00.507Z,32.16
2019-05-15T11:54:31.302Z,31.30
2019-05-15T11:57:03.363Z,31.21
2019-05-15T11:59:35.087Z,32.02
2019-05-15T12:02:08.547Z,31.39
2019-05-15T12:04:40.313Z,31.98
2019-05-15T12:07:12.292Z,32.14
2019-05-15T12:09:45.419Z,31.85
2019-05-15T12:12:18.049Z,31.35
2019-05-15T12:14:49.814Z,32.38
2019-05-15T12:17:21.799Z,32.11
2019-05-15T12:20:01.658Z,32.44
2019-05-15T12:22:28.722Z,32.26
2019-05-15T12:25:00.559Z,31.79
2019-05-15T12:27:31.744Z,31.67
2019-05-15T12:30:03.334Z,32.30
2019-05-15T12:35:08.832Z,32.38
2019-05-15T12:37:40.585Z,31.98
2019-05-15T13:00:41.982Z,30.81
2019-05-15T13:03:13.745Z,32.26
2019-05-15T13:05:44.489Z,32.06
2019-05-15T13:08:16.260Z,31.97
2019-05-15T13:10:48.776Z,31.79
2019-05-15T13:13:20.892Z,31.83
2019-05-15T13:15:52.736Z,30.91
2019-05-15T13:18:23.480Z,31.70
2019-05-15T13:20:56.816Z,31.67
2019-05-15T13:23:28.817Z,32.30
2019-05-15T13:26:00.781Z,31.52
2019-05-15T13:28:31.477Z,31.26
2019-05-15T13:31:03.341Z,31.52
2019-05-15T13:33:35.049Z,30.73
2019-05-15T13:36:08.701Z,31.19
2019-05-15T13:38:40.474Z,32.20
2019-05-15T13:41:12.303Z,32.03
2019-05-15T13:43:44.421Z,31.22
2019-05-15T13:46:20.249Z,30.57
2019-05-15T13:48:50.262Z,31.09
2019-05-15T13:51:22.032Z,32.37
2019-05-15T13:53:53.795Z,31.52
2019-05-15T13:56:25.350Z,31.70
2019-05-15T13:58:58.732Z,31.54
2019-05-15T14:01:30.848Z,30.46
2019-05-15T14:04:02.630Z,30.94
2019-05-15T14:06:34.339Z,28.46
2019-05-15T14:09:08.935Z,28.46
2019-05-15T14:11:40.743Z,29.25
2019-05-15T14:14:11.785Z,27.97
2019-05-15T14:16:43.750Z,27.88
2019-05-15T14:19:15.366Z,27.60
2019-05-15T14:21:49.073Z,27.11
2019-05-15T14:24:20.397Z,27.24
2019-05-15T14:26:52.256Z,28.60
2019-05-15T14:29:24.382Z,28.12
2019-05-15T14:31:58.381Z,26.95
2019-05-15T14:34:29.729Z,26.82
2019-05-15T14:37:04.737Z,27.01
2019-05-15T14:39:35.481Z,26.46
2019-05-15T14:42:09.091Z,26.74
2019-05-15T14:44:40.753Z,26.74
2019-05-15T14:47:12.897Z,26.41
2019-05-15T14:49:45.868Z,26.64
2019-05-15T14:52:17.935Z,25.91
2019-05-15T14:54:49.753Z,27.54
2019-05-15T14:57:20.367Z,27.57
2019-05-15T14:59:52.303Z,26.99
2019-05-15T15:02:23.864Z,26.85
2019-05-15T15:04:55.754Z,26.57
2019-05-15T15:07:28.276Z,27.00
2019-05-15T15:10:00.250Z,26.60
2019-05-15T15:12:31.872Z,26.48
2019-05-15T15:15:03.730Z,26.02
2019-05-15T15:17:35.372Z,26.54
2019-05-15T15:20:07.786Z,26.59
2019-05-15T15:22:39.788Z,26.83
2019-05-15T15:25:11.814Z,26.48
2019-05-15T15:27:43.613Z,26.88
2019-05-15T15:30:16.530Z,26.95
2019-05-15T15:32:52.781Z,26.95
2019-05-15T15:35:24.812Z,27.25
2019-05-15T15:37:58.047Z,26.74
2019-05-15T15:40:30.266Z,26.68
2019-05-15T15:43:02.066Z,27.27
2019-05-15T15:45:33.777Z,26.90
2019-05-15T15:48:04.477Z,28.03
2019-05-15T15:50:38.368Z,29.14
2019-05-15T15:53:09.837Z,31.22
2019-05-15T15:55:41.476Z,31.45
2019-05-15T15:58:13.049Z,30.06
2019-05-15T16:00:44.962Z,30.29
2019-05-15T16:03:19.160Z,30.91
2019-05-15T16:05:50.354Z,30.70
2019-05-15T16:08:22.407Z,30.70
2019-05-15T16:10:55.017Z,31.00
2019-05-15T16:13:29.009Z,30.10
2019-05-15T16:16:00.309Z,29.65
2019-05-15T16:18:31.867Z,28.40
2019-05-15T16:21:03.440Z,27.98
2019-05-15T16:23:35.311Z,28.59
2019-05-15T16:26:09.312Z,28.39
2019-05-15T16:28:40.750Z,29.17
2019-05-15T16:31:11.504Z,29.17
2019-05-15T16:33:43.321Z,29.19
2019-05-15T16:36:14.830Z,29.00
2019-05-15T16:38:48.212Z,29.57
2019-05-15T16:41:20.062Z,29.20
2019-05-15T16:43:51.804Z,28.89
2019-05-15T16:46:24.481Z,29.86
2019-05-15T16:48:58.473Z,29.25
2019-05-15T16:51:32.386Z,29.15
2019-05-15T16:54:03.321Z,28.31
2019-05-15T16:56:36.557Z,28.31
2019-05-15T16:59:08.740Z,28.13
2019-05-15T17:01:41.307Z,27.68
2019-05-15T17:04:12.841Z,27.97
2019-05-15T17:06:49.251Z,27.44
2019-05-15T17:09:21.880Z,27.29
2019-05-15T17:11:53.769Z,27.42
2019-05-15T17:14:25.854Z,27.33
2019-05-15T17:16:58.649Z,27.09
2019-05-15T17:19:30.775Z,28.99
2019-05-15T17:22:01.509Z,28.35
2019-05-15T17:24:33.319Z,28.15
2019-05-15T17:27:05.350Z,28.42
2019-05-15T17:29:38.482Z,28.42
2019-05-15T17:32:09.456Z,27.85
2019-05-15T17:34:41.322Z,28.17
2019-05-15T17:37:13.341Z,28.57
2019-05-15T17:39:44.859Z,28.91
2019-05-15T17:42:18.258Z,29.79
2019-05-15T17:44:50.663Z,29.89
2019-05-15T17:47:22.127Z,29.65
2019-05-15T17:49:54.315Z,28.63
2019-05-15T17:52:28.779Z,28.65
2019-05-15T17:54:59.761Z,28.84
2019-05-15T17:57:31.809Z,28.46
2019-05-15T18:00:03.820Z,29.04
2019-05-15T18:02:37.987Z,28.05
2019-05-15T18:05:09.989Z,27.92
2019-05-15T18:07:42.301Z,28.81
2019-05-15T18:10:14.341Z,28.61
2019-05-15T18:12:48.854Z,28.56
2019-05-15T18:15:20.787Z,31.02
2019-05-15T18:17:53.329Z,32.21
2019-05-15T18:20:29.646Z,31.31
2019-05-15T18:23:01.735Z,31.76
2019-05-15T18:25:32.597Z,32.11
2019-05-15T18:28:05.123Z,32.54
2019-05-15T18:30:38.891Z,32.16
2019-05-15T18:33:11.276Z,32.44
2019-05-15T18:35:43.318Z,31.81
2019-05-15T18:38:15.770Z,32.51
2019-05-15T18:40:48.701Z,32.14
2019-05-15T18:43:19.892Z,32.74
2019-05-15T18:45:51.707Z,33.10
2019-05-15T18:48:22.498Z,32.13
2019-05-15T18:50:54.315Z,32.79
2019-05-15T18:53:28.289Z,32.95
2019-05-15T18:55:59.776Z,32.88
2019-05-15T18:58:30.538Z,32.56
2019-05-15T19:01:02.531Z,32.81
2019-05-15T19:03:34.806Z,33.29
2019-05-15T19:06:08.770Z,33.29
2019-05-15T19:08:42.577Z,33.60
2019-05-15T19:11:14.314Z,32.46
2019-05-15T19:13:48.153Z,32.46
2019-05-15T19:16:20.612Z,32.96
2019-05-15T19:18:52.276Z,32.96
2019-05-15T19:21:24.810Z,32.29
2019-05-15T19:23:58.398Z,32.95
2019-05-15T19:26:29.931Z,32.80
2019-05-15T19:29:01.431Z,32.92
2019-05-15T19:31:33.375Z,33.15
2019-05-15T19:34:05.629Z,32.26
2019-05-15T19:36:38.258Z,33.26
2019-05-15T19:39:10.428Z,33.26
2019-05-15T19:41:42.066Z,32.87
2019-05-15T19:44:13.780Z,33.07
2019-05-15T19:46:44.537Z,32.91
2019-05-15T19:49:17.909Z,32.57
2019-05-15T19:51:49.813Z,33.44
2019-05-15T19:54:21.793Z,33.10
2019-05-15T19:56:53.745Z,33.33
2019-05-15T19:59:24.562Z,33.29
2019-05-15T20:01:57.792Z,33.36
2019-05-15T20:04:30.320Z,33.36
2019-05-15T20:07:02.629Z,33.35
2019-05-15T20:09:39.069Z,33.65
2019-05-15T20:12:10.760Z,33.76
2019-05-15T20:14:42.808Z,33.24
2019-05-15T20:17:14.514Z,33.48
2019-05-15T20:19:48.704Z,33.33
2019-05-15T20:22:20.038Z,33.35
2019-05-15T20:24:51.758Z,33.62
2019-05-15T20:27:22.690Z,33.77
2019-05-15T20:29:53.456Z,33.81
2019-05-15T20:32:27.684Z,33.61
2019-05-15T20:34:58.771Z,34.01
2019-05-15T20:37:29.705Z,33.61
2019-05-15T20:40:00.497Z,33.93
2019-05-15T20:42:32.819Z,33.48
2019-05-15T20:45:04.787Z,33.56
2019-05-15T20:47:38.569Z,33.36
2019-05-15T20:50:08.832Z,33.96
2019-05-15T20:52:41.305Z,34.02
2019-05-15T20:55:12.845Z,33.38
2019-05-15T20:57:44.822Z,33.90
2019-05-15T21:00:19.303Z,34.08
2019-05-15T21:02:50.788Z,34.07
2019-05-15T21:05:22.251Z,33.67
2019-05-15T21:07:53.814Z,34.04
2019-05-15T21:10:25.789Z,34.21
2019-05-15T21:12:59.396Z,33.99
2019-05-15T21:15:30.821Z,33.95
2019-05-15T21:18:13.792Z,33.86
2019-05-15T21:20:37.832Z,33.34
2019-05-15T21:23:09.789Z,33.92
2019-05-15T21:25:40.500Z,34.05
2019-05-15T21:28:12.343Z,34.42
2019-05-15T21:30:45.405Z,34.34
2019-05-15T21:33:17.723Z,33.99
2019-05-15T21:35:50.328Z,34.09
2019-05-15T21:38:21.825Z,34.33
2019-05-15T21:40:53.785Z,34.38
2019-05-15T21:43:24.465Z,33.89
2019-05-15T21:45:56.344Z,34.23
2019-05-15T21:48:29.760Z,34.35
2019-05-15T21:51:00.577Z,34.33
2019-05-15T21:53:32.807Z,34.29
2019-05-15T21:56:03.487Z,34.29
2019-05-15T21:58:37.578Z,34.29
2019-05-15T22:01:10.566Z,34.32
2019-05-15T22:03:42.326Z,34.46
2019-05-15T22:06:13.930Z,34.33
2019-05-15T22:08:45.786Z,34.44
2019-05-15T22:11:18.750Z,34.49
2019-05-15T22:13:49.848Z,34.54
2019-05-15T22:16:21.384Z,34.06
2019-05-15T22:18:53.310Z,34.56
2019-05-15T22:21:24.899Z,34.23
2019-05-15T22:23:58.220Z,34.46
2019-05-15T22:26:29.814Z,34.73
2019-05-15T22:29:01.655Z,34.75
2019-05-15T22:31:33.435Z,34.36
2019-05-15T22:34:05.304Z,34.86
2019-05-15T22:36:37.313Z,34.81
2019-05-15T22:39:09.753Z,34.72
2019-05-15T22:41:40.484Z,34.76
2019-05-15T22:44:12.275Z,34.90
2019-05-15T22:46:44.314Z,34.12
2019-05-15T22:49:18.167Z,34.66
2019-05-15T22:51:49.484Z,34.83
2019-05-15T22:54:21.345Z,34.72
2019-05-15T22:56:53.073Z,34.94
2019-05-15T22:59:25.071Z,34.92
2019-05-15T23:01:58.223Z,34.76
2019-05-15T23:04:30.070Z,34.69
2019-05-15T23:07:01.790Z,34.82
2019-05-15T23:09:33.706Z,35.02
2019-05-15T23:12:10.767Z,34.86
2019-05-15T23:14:39.770Z,35.09
2019-05-15T23:17:10.449Z,35.09
2019-05-15T23:19:42.316Z,35.05
2019-05-15T23:22:14.305Z,35.01
2019-05-15T23:24:47.920Z,34.78
2019-05-15T23:27:19.741Z,34.65
2019-05-15T23:29:50.491Z,35.00
2019-05-15T23:32:22.490Z,34.73
2019-05-15T23:34:54.313Z,35.03
2019-05-15T23:37:27.940Z,35.07
2019-05-15T23:39:59.375Z,35.01
2019-05-15T23:42:31.303Z,35.01
2019-05-15T23:45:02.875Z,35.21
2019-05-15T23:47:34.409Z,35.13
2019-05-15T23:50:06.054Z,35.00
2019-05-15T23:52:38.598Z,35.05
2019-05-15T23:55:10.271Z,35.11
2019-05-15T23:57:42.009Z,34.84
